Tortosa, Spain

12:35 PM CET en Diciembre 03, 2016 (GMT +0100)
Sant Llatzer | | Change Station

Alt 5 ft 40.80 °N, 0.52 °E | Updated 18 seconds ago

Partly Cloudy
Parcialmente nublado
48.9 ° F
Sensación térmica 47 ° F
N
5.0
Viento Variable Viento desde Norte
Gusts 11.0 mph

Hoy
Alta -- | Baja -- ° F
--% Posibilidad de precipitaciones
Ayer
Alta -- | Baja -- ° F
Precip. -- pul
Presión 30.01 pul
Visibilidad 6.2 Millas
Nubes Baja 3500 ft
Vientos helados 47 ° F
Punto de rocío 44 ° F
Humedad 83%
Precipitaciones 0.00 pul
Espesor de la nieve No disponible.
8:05 AM 5:30 PM
Creciente, 14% visible
METAR LERS 031100Z 04005KT 350V090 9999 FEW035 14/09 Q1016
Presión 30.01 pul
Visibilidad 6.2 Millas
Nubes Baja 3500 ft
Vientos helados 47 ° F
Punto de rocío 44 ° F
Humedad 83%
Precipitaciones 0.00 pul
Espesor de la nieve No disponible.
8:05 AM 5:30 PM
Creciente, 14% visible
METAR LERS 031100Z 04005KT 350V090 9999 FEW035 14/09 Q1016

10-Day Weather Forecast

×

Almanac

Astronomía

Dec. 03, 2016 Salida Puesta
Hora real
Crepúsculo civil
Crepúsculo náutico
Crepúsculo astronómico
Luna
Horas de luz
Horas de luz
Tomorrow will be .
, % of the Moon is Illuminated

Extremos de hoy

Máximos del país Bajas del país

Community

WunderPhotos

Upload Photos

1,955,431 ¡fotos cargadas!

WunderBlog® & News

Nearby

Calidad del aire

  Calidad del aire Índice AQ Contaminante
Not available.

Grosos de nieve

Estación Profundido Altura

Actividad de terremotos

Ciudad Distance Mag. Tiempo y dato
Magnitud mínima muestra es 2,5.

Temperaturas de aguas costeras

Lugar Temperatura

Stations

Estaciones meteorológicas cercanas

Ubicación de la estación Temp. Vientos helados Punto de rocío Humedad Viento Precip. Alt Actualizado Tipo